createdAt,value
2023-03-27T00:01:13.463Z,32.60
2023-03-27T00:05:13.484Z,32.60
2023-03-27T00:09:13.577Z,32.61
2023-03-27T00:13:13.667Z,32.61
2023-03-27T00:17:13.788Z,32.65
2023-03-27T00:21:13.862Z,32.66
2023-03-27T00:25:13.947Z,32.62
2023-03-27T00:29:14.062Z,32.65
2023-03-27T00:33:14.134Z,32.64
2023-03-27T00:37:14.274Z,32.64
2023-03-27T00:41:14.342Z,32.65
2023-03-27T00:45:14.436Z,32.64
2023-03-27T00:49:14.539Z,32.67
2023-03-27T00:53:14.625Z,32.67
2023-03-27T00:57:14.838Z,32.68
2023-03-27T01:01:14.927Z,32.64
2023-03-27T01:05:14.990Z,32.65
2023-03-27T01:09:20.202Z,32.64
2023-03-27T01:13:16.138Z,32.67
2023-03-27T01:17:15.062Z,32.66
2023-03-27T01:21:15.007Z,32.65
2023-03-27T01:25:15.161Z,32.67
2023-03-27T01:29:15.226Z,32.64
2023-03-27T01:33:15.322Z,32.65
2023-03-27T01:37:15.419Z,32.66
2023-03-27T01:41:15.525Z,32.67
2023-03-27T01:45:15.639Z,32.69
2023-03-27T01:49:15.700Z,32.68
2023-03-27T01:53:15.775Z,32.69
2023-03-27T01:57:15.989Z,32.70
2023-03-27T02:01:16.040Z,32.68
2023-03-27T02:05:16.212Z,32.67
2023-03-27T02:09:16.309Z,32.67
2023-03-27T02:13:16.464Z,32.69
2023-03-27T02:17:16.594Z,32.69
2023-03-27T02:21:16.745Z,32.67
2023-03-27T02:25:16.939Z,32.69
2023-03-27T02:29:17.035Z,32.70
2023-03-27T02:33:17.265Z,32.72
2023-03-27T02:37:17.364Z,32.71
2023-03-27T02:41:17.472Z,32.69
2023-03-27T02:45:17.655Z,32.72
2023-03-27T02:49:17.749Z,32.73
2023-03-27T02:53:17.917Z,32.70
2023-03-27T02:57:18.021Z,32.74
2023-03-27T03:01:18.140Z,32.71
2023-03-27T03:05:18.234Z,32.71
2023-03-27T03:09:18.400Z,32.73
2023-03-27T03:13:18.502Z,32.73
2023-03-27T03:17:18.651Z,32.72
2023-03-27T03:21:18.748Z,32.75
2023-03-27T03:25:18.877Z,32.75
2023-03-27T03:29:19.088Z,32.73
2023-03-27T03:33:19.180Z,32.74
2023-03-27T03:37:19.343Z,32.73
2023-03-27T03:41:19.473Z,32.72
2023-03-27T03:45:19.622Z,32.75
2023-03-27T03:49:19.813Z,32.75
2023-03-27T03:53:20.009Z,32.76
2023-03-27T03:57:20.084Z,32.75
2023-03-27T04:01:20.217Z,32.76
2023-03-27T04:05:20.433Z,32.56
2023-03-27T04:09:20.630Z,32.37
2023-03-27T04:13:20.639Z,32.18
2023-03-27T04:17:20.598Z,31.87
2023-03-27T04:21:20.566Z,31.76
2023-03-27T04:25:20.476Z,31.60
2023-03-27T04:29:20.471Z,31.41
2023-03-27T04:33:20.464Z,31.39
2023-03-27T04:37:23.376Z,31.42
2023-03-27T04:41:20.363Z,31.45
2023-03-27T04:45:20.312Z,31.54
2023-03-27T04:49:20.323Z,31.57
2023-03-27T04:53:20.339Z,31.56
2023-03-27T04:57:20.301Z,31.51
2023-03-27T05:01:20.212Z,31.53
2023-03-27T05:05:20.196Z,31.55
2023-03-27T05:09:20.303Z,31.53
2023-03-27T05:13:20.491Z,31.54
2023-03-27T05:17:20.742Z,31.53
2023-03-27T05:21:20.967Z,31.55
2023-03-27T05:25:20.886Z,31.55
2023-03-27T05:29:20.882Z,31.57
2023-03-27T05:33:20.851Z,31.58
2023-03-27T05:37:20.797Z,31.94
2023-03-27T05:41:20.821Z,32.51
2023-03-27T05:45:20.720Z,33.73
2023-03-27T05:49:20.670Z,34.23
2023-03-27T05:53:20.634Z,34.14
2023-03-27T05:57:21.674Z,34.71
2023-03-27T06:01:20.615Z,34.49
2023-03-27T06:05:20.550Z,34.52
2023-03-27T06:09:20.613Z,34.54
2023-03-27T06:13:20.673Z,34.57
2023-03-27T06:17:20.782Z,34.77
2023-03-27T06:21:20.915Z,34.49
2023-03-27T06:25:20.852Z,34.36
2023-03-27T06:29:21.179Z,34.36
2023-03-27T06:33:20.943Z,34.32
2023-03-27T06:37:20.977Z,34.29
2023-03-27T06:41:21.002Z,34.35
2023-03-27T06:45:20.997Z,33.89
2023-03-27T06:49:21.225Z,33.84
2023-03-27T06:53:27.396Z,33.70
2023-03-27T06:57:22.150Z,33.57
2023-03-27T07:01:21.084Z,33.29
2023-03-27T07:05:21.207Z,33.29
2023-03-27T07:09:21.117Z,33.15
2023-03-27T07:13:21.112Z,33.12
2023-03-27T07:17:21.033Z,33.01
2023-03-27T07:21:21.025Z,32.86
2023-03-27T07:25:20.974Z,31.91
2023-03-27T07:29:20.981Z,32.39
2023-03-27T07:33:20.945Z,32.32
2023-03-27T07:37:21.146Z,31.10
2023-03-27T07:41:20.842Z,32.08
2023-03-27T07:45:21.177Z,32.23
2023-03-27T07:49:20.730Z,32.43
2023-03-27T07:53:33.884Z,32.56
2023-03-27T07:57:21.807Z,32.53
2023-03-27T08:01:20.656Z,32.78
2023-03-27T08:05:20.607Z,32.56
2023-03-27T08:09:20.646Z,32.38
2023-03-27T08:13:20.558Z,32.47
2023-03-27T08:17:22.048Z,30.50
2023-03-27T08:21:20.463Z,31.87
2023-03-27T08:25:20.473Z,29.83
2023-03-27T08:29:20.588Z,30.25
2023-03-27T08:33:20.784Z,29.25
2023-03-27T08:37:20.854Z,30.35
2023-03-27T08:41:21.048Z,31.14
2023-03-27T08:45:21.209Z,31.58
2023-03-27T08:49:21.772Z,31.55
2023-03-27T08:53:21.273Z,31.71
2023-03-27T08:57:21.675Z,31.58
2023-03-27T09:01:21.767Z,31.98
2023-03-27T09:05:21.839Z,31.90
2023-03-27T09:09:21.977Z,32.10
2023-03-27T09:13:21.986Z,32.13
2023-03-27T09:17:22.000Z,32.02
2023-03-27T09:21:22.179Z,31.73
2023-03-27T09:25:22.203Z,32.03
2023-03-27T09:29:22.085Z,32.02
2023-03-27T09:33:23.310Z,31.59
2023-03-27T09:37:22.186Z,32.02
2023-03-27T09:41:22.173Z,31.85
2023-03-27T09:45:22.174Z,31.90
2023-03-27T09:49:22.141Z,31.81
2023-03-27T09:53:22.052Z,31.82
2023-03-27T09:57:22.032Z,31.25
2023-03-27T10:01:22.019Z,31.43
2023-03-27T10:05:22.285Z,31.50
2023-03-27T10:09:21.962Z,31.46
2023-03-27T10:13:21.903Z,31.54
2023-03-27T10:17:21.854Z,31.66
2023-03-27T10:21:21.869Z,31.96
2023-03-27T10:25:21.767Z,31.37
2023-03-27T10:29:22.261Z,26.02
2023-03-27T10:33:21.779Z,28.18
2023-03-27T10:37:21.707Z,29.16
2023-03-27T10:41:29.226Z,29.37
2023-03-27T10:45:22.664Z,29.60
2023-03-27T10:49:21.562Z,29.54
2023-03-27T10:53:21.674Z,29.94
2023-03-27T10:57:21.482Z,30.10
2023-03-27T11:01:21.549Z,29.98
2023-03-27T11:05:21.534Z,30.23
2023-03-27T11:09:21.558Z,30.08
2023-03-27T11:13:21.507Z,30.29
2023-03-27T11:17:21.563Z,30.33
2023-03-27T11:21:21.574Z,30.35
2023-03-27T11:25:21.586Z,29.84
2023-03-27T11:29:21.725Z,29.43
2023-03-27T11:33:21.848Z,29.20
2023-03-27T11:37:21.811Z,29.02
2023-03-27T11:41:21.835Z,28.92
2023-03-27T11:45:21.844Z,28.86
2023-03-27T11:49:21.942Z,28.75
2023-03-27T11:53:22.009Z,28.69
2023-03-27T11:57:22.191Z,28.65
2023-03-27T12:01:22.277Z,28.51
2023-03-27T12:05:22.409Z,28.19
2023-03-27T12:09:22.641Z,27.08
2023-03-27T12:13:28.778Z,29.17
2023-03-27T12:17:23.730Z,29.44
2023-03-27T12:21:22.665Z,29.85
2023-03-27T12:25:22.726Z,29.99
2023-03-27T12:29:24.468Z,30.40
2023-03-27T12:33:23.284Z,30.27
2023-03-27T12:37:22.864Z,30.40
2023-03-27T12:41:22.857Z,30.50
2023-03-27T12:45:22.993Z,30.55
2023-03-27T12:49:44.478Z,30.65
2023-03-27T12:53:24.376Z,30.40
2023-03-27T12:57:23.345Z,26.82
2023-03-27T13:01:23.058Z,27.04
2023-03-27T13:05:27.612Z,27.27
2023-03-27T13:09:24.016Z,27.98
2023-03-27T13:13:22.952Z,28.66
2023-03-27T13:17:22.995Z,28.43
2023-03-27T13:21:23.065Z,27.64
2023-03-27T13:25:23.243Z,27.47
2023-03-27T13:29:23.621Z,28.50
2023-03-27T13:33:23.481Z,28.76
2023-03-27T13:37:23.405Z,28.79
2023-03-27T13:41:25.627Z,28.70
2023-03-27T13:45:23.366Z,28.67
2023-03-27T13:49:23.496Z,28.60
2023-03-27T13:53:23.966Z,28.53
2023-03-27T13:57:23.882Z,28.34
2023-03-27T14:01:24.186Z,28.23
2023-03-27T14:05:24.289Z,28.14
2023-03-27T14:09:24.459Z,28.11
2023-03-27T14:13:24.672Z,28.11
2023-03-27T14:17:24.673Z,28.09
2023-03-27T14:21:37.812Z,28.13
2023-03-27T14:25:25.587Z,28.18
2023-03-27T14:29:24.564Z,28.19
2023-03-27T14:33:24.615Z,28.16
2023-03-27T14:37:24.730Z,28.17
2023-03-27T14:41:24.949Z,28.18
2023-03-27T14:45:25.001Z,28.18
2023-03-27T14:49:25.130Z,28.22
2023-03-27T14:53:25.300Z,28.29
2023-03-27T14:57:25.453Z,28.28
2023-03-27T15:01:25.562Z,28.32
2023-03-27T15:05:25.778Z,28.37
2023-03-27T15:09:25.968Z,28.39
2023-03-27T15:13:26.227Z,28.42
2023-03-27T15:17:26.362Z,28.44
2023-03-27T15:21:26.483Z,28.44
2023-03-27T15:25:26.719Z,28.46
2023-03-27T15:29:26.905Z,28.44
2023-03-27T15:33:26.837Z,28.47
2023-03-27T15:37:26.803Z,28.49
2023-03-27T15:41:26.786Z,28.45
2023-03-27T15:45:26.744Z,28.46
2023-03-27T15:49:26.738Z,28.49
2023-03-27T15:53:26.684Z,28.50
2023-03-27T15:57:26.670Z,28.52
2023-03-27T16:01:26.681Z,28.56
2023-03-27T16:05:26.584Z,28.63
2023-03-27T16:09:26.486Z,28.70
2023-03-27T16:13:26.611Z,28.70
2023-03-27T16:17:26.603Z,28.76
2023-03-27T16:21:26.563Z,28.77
2023-03-27T16:25:26.577Z,28.81
2023-03-27T16:29:26.456Z,28.84
2023-03-27T16:33:26.427Z,28.89
2023-03-27T16:37:26.364Z,28.94
2023-03-27T16:41:26.388Z,28.94
2023-03-27T16:45:26.339Z,28.90
2023-03-27T16:49:26.350Z,28.93
2023-03-27T16:53:26.208Z,28.94
2023-03-27T16:57:26.200Z,28.97
2023-03-27T17:01:26.273Z,28.96
2023-03-27T17:05:26.150Z,28.94
2023-03-27T17:09:26.107Z,28.98
2023-03-27T17:13:26.041Z,28.99
2023-03-27T17:17:26.023Z,29.00
2023-03-27T17:21:25.971Z,29.02
2023-03-27T17:25:25.960Z,29.07
2023-03-27T17:29:25.906Z,29.06
2023-03-27T17:33:25.859Z,29.10
2023-03-27T17:37:25.866Z,29.11
2023-03-27T17:41:25.794Z,29.11
2023-03-27T17:45:25.791Z,29.15
2023-03-27T17:49:25.731Z,29.18
2023-03-27T17:53:25.704Z,29.18
2023-03-27T17:57:25.678Z,29.23
2023-03-27T18:01:25.860Z,29.21
2023-03-27T18:05:25.864Z,29.25
2023-03-27T18:09:25.972Z,29.26
2023-03-27T18:13:26.055Z,29.28
2023-03-27T18:17:26.203Z,29.29
2023-03-27T18:21:26.244Z,29.31
2023-03-27T18:25:26.387Z,29.33
2023-03-27T18:29:26.508Z,29.34
2023-03-27T18:33:26.651Z,29.37
2023-03-27T18:37:26.676Z,29.41
2023-03-27T18:41:26.797Z,29.53
2023-03-27T18:45:26.862Z,29.71
2023-03-27T18:49:26.969Z,29.73
2023-03-27T18:53:27.142Z,29.69
2023-03-27T18:57:27.338Z,29.61
2023-03-27T19:01:27.514Z,29.50
2023-03-27T19:05:27.706Z,29.44
2023-03-27T19:09:34.467Z,29.36
2023-03-27T19:13:28.643Z,29.34
2023-03-27T19:17:27.655Z,29.31
2023-03-27T19:21:27.850Z,29.31
2023-03-27T19:25:28.052Z,29.31
2023-03-27T19:29:28.226Z,29.28
2023-03-27T19:33:28.374Z,29.24
2023-03-27T19:37:28.514Z,29.31
2023-03-27T19:41:28.639Z,29.40
2023-03-27T19:45:28.774Z,29.43
2023-03-27T19:49:28.848Z,29.50
2023-03-27T19:53:28.953Z,29.55
2023-03-27T19:57:29.057Z,29.58
2023-03-27T20:01:29.231Z,29.62
2023-03-27T20:05:29.382Z,29.67
2023-03-27T20:09:29.461Z,29.70
2023-03-27T20:13:29.533Z,29.74
2023-03-27T20:17:29.560Z,29.78
2023-03-27T20:21:29.625Z,29.80
2023-03-27T20:25:29.775Z,29.85
2023-03-27T20:29:29.837Z,29.88
2023-03-27T20:33:29.912Z,29.90
2023-03-27T20:37:30.055Z,29.95
2023-03-27T20:41:30.172Z,29.96
2023-03-27T20:45:30.354Z,29.99
2023-03-27T20:49:40.709Z,30.05
2023-03-27T20:53:33.877Z,30.06
2023-03-27T20:57:30.292Z,30.08
2023-03-27T21:01:30.288Z,30.09
2023-03-27T21:05:30.289Z,30.11
2023-03-27T21:09:30.154Z,30.14
2023-03-27T21:13:30.125Z,30.18
2023-03-27T21:17:30.267Z,30.19
2023-03-27T21:21:30.066Z,30.22
2023-03-27T21:25:30.055Z,30.23
2023-03-27T21:29:29.981Z,30.27
2023-03-27T21:33:29.942Z,30.28
2023-03-27T21:37:29.942Z,30.31
2023-03-27T21:41:29.997Z,30.32
2023-03-27T21:45:30.130Z,30.36
2023-03-27T21:49:30.231Z,30.35
2023-03-27T21:53:30.380Z,30.38
2023-03-27T21:57:30.430Z,30.39
2023-03-27T22:01:30.681Z,30.43
2023-03-27T22:05:30.665Z,30.45
2023-03-27T22:09:30.803Z,30.46
2023-03-27T22:13:31.082Z,30.48
2023-03-27T22:17:31.220Z,30.48
2023-03-27T22:21:31.262Z,30.52
2023-03-27T22:25:31.397Z,30.53
2023-03-27T22:29:31.531Z,30.55
2023-03-27T22:33:31.580Z,30.57
2023-03-27T22:37:31.724Z,30.59
2023-03-27T22:41:31.863Z,30.61
2023-03-27T22:45:32.046Z,30.62
2023-03-27T22:49:32.112Z,30.65
2023-03-27T22:53:32.302Z,30.66
2023-03-27T22:57:32.457Z,30.66
2023-03-27T23:01:32.595Z,30.69
2023-03-27T23:05:32.701Z,30.71
2023-03-27T23:09:32.852Z,30.71
2023-03-27T23:13:32.991Z,30.74
2023-03-27T23:17:33.236Z,30.74
2023-03-27T23:21:33.422Z,30.74
2023-03-27T23:25:33.547Z,30.77
2023-03-27T23:29:33.786Z,30.79
2023-03-27T23:33:33.940Z,30.80
2023-03-27T23:37:34.145Z,30.82
2023-03-27T23:41:34.327Z,30.82
2023-03-27T23:45:34.586Z,30.85
2023-03-27T23:49:40.074Z,30.87
2023-03-27T23:53:34.806Z,30.85
2023-03-27T23:57:35.042Z,30.87
